createdAt,value
2018-09-15T00:01:09.671Z,0.82
2018-09-15T00:03:45.930Z,0.80
2018-09-15T00:06:21.435Z,0.65
2018-09-15T00:08:57.035Z,0.80
2018-09-15T00:11:33.595Z,0.70
2018-09-15T00:14:09.238Z,0.70
2018-09-15T00:16:44.701Z,0.80
2018-09-15T00:19:20.403Z,0.60
2018-09-15T00:21:55.726Z,0.80
2018-09-15T00:24:31.423Z,0.60
2018-09-15T00:27:07.052Z,0.80
2018-09-15T00:29:42.851Z,0.95
2018-09-15T00:32:18.409Z,0.80
2018-09-15T00:34:53.775Z,0.80
2018-09-15T00:37:29.290Z,1.00
2018-09-15T00:40:04.874Z,0.80
2018-09-15T00:42:40.419Z,0.80
2018-09-15T00:45:15.786Z,0.70
2018-09-15T00:47:51.230Z,0.80
2018-09-15T00:50:26.698Z,0.90
2018-09-15T00:53:02.268Z,0.70
2018-09-15T00:55:37.719Z,0.80
2018-09-15T00:58:13.238Z,0.60
2018-09-15T01:00:48.818Z,0.57
2018-09-15T01:03:24.682Z,0.65
2018-09-15T01:06:00.242Z,0.50
2018-09-15T01:08:35.494Z,0.50
2018-09-15T01:11:10.741Z,0.50
2018-09-15T01:13:47.046Z,0.70
2018-09-15T01:16:22.655Z,0.45
2018-09-15T01:18:58.069Z,0.50
2018-09-15T01:21:33.736Z,0.50
2018-09-15T01:24:09.280Z,0.40
2018-09-15T01:26:44.693Z,0.40
2018-09-15T01:29:20.352Z,0.60
2018-09-15T01:31:55.742Z,0.80
2018-09-15T01:34:31.413Z,0.50
2018-09-15T01:38:11.487Z,0.50
2018-09-15T01:40:47.078Z,0.50
2018-09-15T01:43:22.437Z,0.50
2018-09-15T01:45:57.977Z,0.40
2018-09-15T01:48:33.238Z,0.47
2018-09-15T01:51:08.866Z,0.50
2018-09-15T01:53:44.256Z,0.55
2018-09-15T01:56:19.743Z,0.50
2018-09-15T01:58:55.992Z,0.53
2018-09-15T02:01:32.093Z,0.45
2018-09-15T02:04:07.906Z,0.70
2018-09-15T02:06:44.086Z,0.55
2018-09-15T02:09:20.259Z,0.45
2018-09-15T02:11:56.268Z,0.40
2018-09-15T02:14:31.978Z,0.50
2018-09-15T02:17:08.101Z,0.55
2018-09-15T02:19:44.078Z,0.60
2018-09-15T02:22:20.171Z,0.60
2018-09-15T02:24:56.087Z,0.70
2018-09-15T02:27:32.273Z,0.60
2018-09-15T02:30:08.090Z,0.50
2018-09-15T02:32:44.093Z,0.47
2018-09-15T02:35:20.270Z,0.53
2018-09-15T02:37:56.082Z,0.60
2018-09-15T02:40:32.318Z,0.53
2018-09-15T02:43:08.273Z,0.40
2018-09-15T02:45:44.748Z,0.50
2018-09-15T02:48:20.285Z,0.98
2018-09-15T02:53:18.279Z,0.50
2018-09-15T02:55:54.297Z,0.60
2018-09-15T02:58:30.441Z,0.40
2018-09-15T03:01:05.871Z,0.50
2018-09-15T03:03:41.444Z,0.65
2018-09-15T03:06:17.305Z,0.50
2018-09-15T03:08:53.297Z,0.70
2018-09-15T03:11:29.102Z,0.78
2018-09-15T03:14:05.111Z,0.80
2018-09-15T03:16:41.511Z,0.70
2018-09-15T03:19:17.313Z,0.70
2018-09-15T03:21:52.516Z,0.80
2018-09-15T03:24:28.066Z,1.00
2018-09-15T03:27:03.514Z,0.85
2018-09-15T03:29:39.585Z,1.00
2018-09-15T03:32:14.934Z,1.20
2018-09-15T03:34:50.582Z,0.90
2018-09-15T03:37:26.294Z,1.52
2018-09-15T03:40:01.745Z,1.10
2018-09-15T03:42:37.294Z,1.00
2018-09-15T03:45:13.103Z,1.30
2018-09-15T03:47:48.303Z,1.20
2018-09-15T03:50:23.739Z,1.20
2018-09-15T03:52:59.922Z,1.20
2018-09-15T03:55:35.837Z,1.20
2018-09-15T03:58:11.523Z,1.10
2018-09-15T04:00:47.117Z,1.30
2018-09-15T04:05:36.961Z,0.93
2018-09-15T04:11:08.119Z,1.00
2018-09-15T04:13:43.523Z,0.60
2018-09-15T04:16:21.892Z,1.30
2018-09-15T04:18:57.734Z,0.90
2018-09-15T04:21:33.121Z,1.10
2018-09-15T04:24:08.510Z,0.83
2018-09-15T04:26:44.156Z,1.00
2018-09-15T04:29:19.787Z,1.10
2018-09-15T04:31:55.343Z,1.15
2018-09-15T04:34:31.317Z,0.95
2018-09-15T04:37:07.001Z,0.90
2018-09-15T04:39:42.902Z,1.00
2018-09-15T04:42:18.477Z,1.17
2018-09-15T04:44:53.875Z,1.03
2018-09-15T04:47:29.522Z,0.90
2018-09-15T04:50:05.121Z,0.90
2018-09-15T04:52:40.571Z,0.80
2018-09-15T04:55:16.482Z,0.90
2018-09-15T04:57:52.374Z,0.90
2018-09-15T05:00:27.577Z,0.93
2018-09-15T05:03:03.138Z,1.20
2018-09-15T05:12:33.508Z,1.20
2018-09-15T05:15:08.954Z,1.40
2018-09-15T05:18:18.128Z,1.07
2018-09-15T05:23:11.819Z,1.03
2018-09-15T05:25:47.146Z,1.00
2018-09-15T05:28:22.931Z,0.90
2018-09-15T05:30:59.042Z,0.75
2018-09-15T05:33:34.491Z,0.90
2018-09-15T05:36:10.374Z,0.80
2018-09-15T05:38:46.047Z,1.07
2018-09-15T05:41:21.560Z,0.80
2018-09-15T05:45:32.343Z,0.70
2018-09-15T05:48:09.342Z,0.70
2018-09-15T05:50:44.898Z,0.60
2018-09-15T05:53:20.347Z,1.00
2018-09-15T05:57:19.546Z,0.82
2018-09-15T05:59:55.167Z,0.90
2018-09-15T06:02:31.794Z,0.90
2018-09-15T06:05:07.369Z,0.90
2018-09-15T06:07:43.006Z,0.80
2018-09-15T06:10:18.565Z,0.88
2018-09-15T06:12:54.183Z,1.17
2018-09-15T06:15:31.018Z,1.00
2018-09-15T06:18:06.920Z,1.17
2018-09-15T06:20:42.361Z,1.07
2018-09-15T06:23:17.917Z,1.00
2018-09-15T06:25:53.773Z,1.20
2018-09-15T06:28:30.401Z,1.07
2018-09-15T06:31:05.978Z,1.40
2018-09-15T06:33:42.514Z,1.00
2018-09-15T06:36:17.995Z,1.30
2018-09-15T06:38:53.926Z,1.00
2018-09-15T06:41:29.517Z,1.20
2018-09-15T06:44:05.005Z,1.30
2018-09-15T06:46:40.511Z,1.50
2018-09-15T06:49:16.089Z,1.10
2018-09-15T06:53:11.920Z,1.52
2018-09-15T06:55:47.963Z,1.30
2018-09-15T06:58:23.936Z,1.10
2018-09-15T07:00:59.977Z,1.32
2018-09-15T07:03:35.833Z,1.20
2018-09-15T07:06:11.806Z,1.20
2018-09-15T07:08:47.953Z,1.30
2018-09-15T07:11:25.024Z,1.40
2018-09-15T07:14:00.945Z,1.65
2018-09-15T07:16:37.370Z,1.10
2018-09-15T07:19:13.362Z,1.40
2018-09-15T07:21:49.199Z,1.40
2018-09-15T07:24:25.580Z,1.20
2018-09-15T07:27:02.188Z,1.20
2018-09-15T07:29:38.202Z,1.05
2018-09-15T07:32:14.471Z,1.40
2018-09-15T07:34:50.735Z,1.00
2018-09-15T07:37:27.749Z,1.10
2018-09-15T07:40:04.092Z,1.40
2018-09-15T07:42:40.113Z,1.20
2018-09-15T07:45:16.211Z,1.17
2018-09-15T07:47:52.166Z,1.42
2018-09-15T07:50:28.104Z,1.30
2018-09-15T07:53:05.441Z,1.60
2018-09-15T07:55:41.840Z,1.60
2018-09-15T07:58:18.327Z,1.55
2018-09-15T08:00:54.395Z,1.42
2018-09-15T08:03:31.190Z,1.37
2018-09-15T08:06:07.173Z,1.40
2018-09-15T08:08:43.406Z,1.50
2018-09-15T08:11:19.859Z,1.55
2018-09-15T08:13:56.270Z,1.20
2018-09-15T08:16:32.386Z,0.90
2018-09-15T08:19:08.395Z,1.30
2018-09-15T08:21:44.201Z,1.10
2018-09-15T08:24:20.210Z,1.33
2018-09-15T08:26:56.211Z,1.00
2018-09-15T08:29:32.221Z,1.20
2018-09-15T08:32:08.285Z,1.17
2018-09-15T08:34:45.095Z,1.40
2018-09-15T08:37:21.178Z,1.22
2018-09-15T08:39:57.153Z,1.27
2018-09-15T08:42:33.156Z,1.00
2018-09-15T08:45:09.390Z,1.10
2018-09-15T08:47:45.377Z,1.40
2018-09-15T08:50:21.566Z,1.20
2018-09-15T08:52:57.627Z,1.22
2018-09-15T08:55:33.664Z,1.27
2018-09-15T08:58:10.146Z,1.33
2018-09-15T09:00:46.223Z,1.50
2018-09-15T09:03:22.225Z,1.50
2018-09-15T09:05:58.222Z,1.30
2018-09-15T09:08:34.118Z,1.73
2018-09-15T09:11:10.225Z,1.90
2018-09-15T09:13:46.194Z,1.77
2018-09-15T09:16:22.190Z,1.40
2018-09-15T09:18:58.107Z,1.90
2018-09-15T09:21:34.213Z,1.90
2018-09-15T09:24:10.228Z,1.60
2018-09-15T09:26:46.699Z,1.57
2018-09-15T09:29:23.049Z,1.80
2018-09-15T09:31:59.045Z,1.65
2018-09-15T09:34:34.967Z,1.70
2018-09-15T09:37:11.641Z,1.57
2018-09-15T09:39:47.637Z,1.57
2018-09-15T09:42:24.131Z,1.67
2018-09-15T09:45:00.986Z,1.60
2018-09-15T09:47:37.241Z,1.50
2018-09-15T09:50:13.413Z,1.67
2018-09-15T09:52:49.360Z,1.15
2018-09-15T09:55:25.417Z,1.50
2018-09-15T09:58:03.267Z,1.60
2018-09-15T10:00:43.011Z,1.00
2018-09-15T10:03:19.238Z,1.22
2018-09-15T10:05:55.228Z,1.32
2018-09-15T10:08:31.419Z,1.40
2018-09-15T10:11:07.653Z,1.40
2018-09-15T10:13:44.022Z,1.33
2018-09-15T10:16:20.283Z,1.30
2018-09-15T10:18:56.273Z,1.10
2018-09-15T10:21:32.255Z,1.00
2018-09-15T10:24:08.281Z,1.17
2018-09-15T10:26:44.130Z,1.00
2018-09-15T10:29:20.250Z,1.10
2018-09-15T10:31:56.287Z,1.30
2018-09-15T10:34:32.251Z,1.10
2018-09-15T10:37:08.271Z,1.10
2018-09-15T10:39:44.238Z,1.07
2018-09-15T10:42:20.424Z,1.10
2018-09-15T10:44:56.425Z,1.12
2018-09-15T10:47:32.251Z,1.10
2018-09-15T10:50:08.463Z,1.15
2018-09-15T10:52:45.249Z,1.20
2018-09-15T10:55:21.225Z,1.20
2018-09-15T10:57:57.186Z,1.10
2018-09-15T11:00:32.969Z,1.00
2018-09-15T11:03:09.209Z,0.90
2018-09-15T11:05:45.159Z,1.00
2018-09-15T11:08:21.149Z,1.00
2018-09-15T11:10:57.418Z,0.80
2018-09-15T11:13:33.425Z,0.90
2018-09-15T11:16:09.702Z,1.05
2018-09-15T11:18:46.121Z,0.90
2018-09-15T11:21:22.269Z,0.93
2018-09-15T11:23:58.175Z,0.90
2018-09-15T11:26:34.263Z,0.93
2018-09-15T11:29:10.952Z,1.00
2018-09-15T11:31:47.277Z,0.88
2018-09-15T11:34:23.442Z,0.90
2018-09-15T11:36:59.123Z,0.90
2018-09-15T11:39:35.442Z,1.10
2018-09-15T11:42:11.029Z,0.80
2018-09-15T11:44:47.266Z,0.88
2018-09-15T11:47:23.468Z,1.10
2018-09-15T11:49:59.276Z,1.10
2018-09-15T11:52:36.050Z,1.00
2018-09-15T11:55:12.270Z,1.20
2018-09-15T11:57:48.445Z,1.05
2018-09-15T12:00:28.730Z,1.10
2018-09-15T12:03:04.873Z,0.90
2018-09-15T12:05:41.044Z,0.90
2018-09-15T12:08:16.862Z,0.70
2018-09-15T12:13:38.925Z,0.93
2018-09-15T12:16:14.814Z,1.00
2018-09-15T12:18:51.101Z,1.00
2018-09-15T12:21:26.953Z,0.85
2018-09-15T12:24:03.208Z,1.12
2018-09-15T12:26:39.475Z,1.03
2018-09-15T12:29:15.465Z,0.87
2018-09-15T12:31:51.445Z,1.10
2018-09-15T12:34:27.454Z,1.00
2018-09-15T12:37:04.256Z,1.10
2018-09-15T12:39:40.291Z,1.10
2018-09-15T12:42:16.241Z,1.10
2018-09-15T12:44:52.239Z,0.98
2018-09-15T12:47:28.306Z,0.90
2018-09-15T12:50:04.273Z,1.00
2018-09-15T12:52:40.288Z,0.80
2018-09-15T12:55:16.477Z,0.90
2018-09-15T12:57:52.502Z,0.87
2018-09-15T13:00:29.162Z,0.70
2018-09-15T13:03:05.297Z,1.00
2018-09-15T13:05:41.261Z,0.80
2018-09-15T13:08:17.105Z,1.00
2018-09-15T13:10:53.190Z,0.90
2018-09-15T13:13:29.300Z,0.90
2018-09-15T13:16:05.155Z,0.80
2018-09-15T13:18:41.046Z,1.00
2018-09-15T13:21:17.050Z,1.00
2018-09-15T13:23:53.280Z,1.10
2018-09-15T13:26:29.297Z,1.12
2018-09-15T13:29:05.210Z,0.97
2018-09-15T13:31:42.031Z,0.90
2018-09-15T13:34:17.646Z,1.20
2018-09-15T13:36:53.971Z,1.00
2018-09-15T13:39:29.923Z,1.30
2018-09-15T13:42:05.957Z,1.10
2018-09-15T13:44:42.080Z,1.10
2018-09-15T13:47:19.297Z,1.00
2018-09-15T13:49:55.314Z,0.95
2018-09-15T13:52:31.306Z,1.00
2018-09-15T13:55:08.309Z,1.20
2018-09-15T13:57:44.215Z,0.97
2018-09-15T14:00:20.285Z,1.20
2018-09-15T14:02:56.310Z,1.30
2018-09-15T14:05:32.302Z,1.10
2018-09-15T14:08:09.737Z,0.82
2018-09-15T14:10:46.836Z,1.12
2018-09-15T14:13:23.314Z,1.00
2018-09-15T14:15:59.313Z,1.00
2018-09-15T14:18:35.208Z,1.23
2018-09-15T14:21:11.293Z,1.15
2018-09-15T14:23:47.055Z,1.00
2018-09-15T14:26:23.490Z,1.00
2018-09-15T14:28:59.510Z,1.00
2018-09-15T14:31:35.650Z,1.00
2018-09-15T14:34:11.696Z,0.90
2018-09-15T14:36:47.719Z,1.10
2018-09-15T14:39:24.066Z,0.95
2018-09-15T14:42:00.078Z,1.20
2018-09-15T14:44:36.494Z,0.87
2018-09-15T14:47:12.445Z,1.00
2018-09-15T14:49:49.502Z,0.85
2018-09-15T14:52:25.497Z,1.23
2018-09-15T14:55:02.621Z,1.00
2018-09-15T14:57:38.978Z,1.37
2018-09-15T15:00:15.281Z,1.00
2018-09-15T15:02:56.078Z,1.10
2018-09-15T15:05:32.308Z,1.20
2018-09-15T15:08:08.512Z,1.25
2018-09-15T15:10:44.607Z,1.00
2018-09-15T15:13:20.611Z,1.27
2018-09-15T15:15:56.517Z,1.23
2018-09-15T15:18:32.510Z,1.30
2018-09-15T15:21:08.306Z,1.13
2018-09-15T15:23:44.330Z,1.10
2018-09-15T15:26:20.151Z,1.30
2018-09-15T15:28:56.327Z,1.35
2018-09-15T15:31:33.516Z,1.45
2018-09-15T15:34:09.491Z,1.00
2018-09-15T15:36:45.937Z,1.20
2018-09-15T15:39:22.242Z,1.05
2018-09-15T15:41:58.306Z,1.10
2018-09-15T15:44:34.679Z,1.37
2018-09-15T15:47:11.156Z,1.05
2018-09-15T15:49:47.196Z,1.30
2018-09-15T15:52:23.378Z,1.10
2018-09-15T15:54:59.746Z,1.22
2018-09-15T15:57:36.069Z,1.20
2018-09-15T16:00:12.095Z,1.32
2018-09-15T16:02:47.989Z,1.10
2018-09-15T16:05:24.113Z,1.27
2018-09-15T16:08:00.030Z,1.10
2018-09-15T16:10:35.970Z,1.10
2018-09-15T16:13:11.690Z,1.10
2018-09-15T16:15:47.522Z,1.10
2018-09-15T16:18:24.338Z,1.00
2018-09-15T16:21:00.386Z,1.12
2018-09-15T16:23:36.474Z,0.90
2018-09-15T16:26:12.357Z,0.85
2018-09-15T16:28:48.701Z,0.90
2018-09-15T16:31:24.724Z,1.30
2018-09-15T16:34:01.166Z,0.80
2018-09-15T16:36:37.478Z,0.90
2018-09-15T16:39:15.696Z,0.70
2018-09-15T16:41:51.371Z,0.77
2018-09-15T16:44:27.340Z,0.75
2018-09-15T16:47:03.732Z,0.88
2018-09-15T16:49:39.595Z,1.10
2018-09-15T16:52:15.552Z,0.80
2018-09-15T16:54:51.269Z,0.97
2018-09-15T16:57:27.214Z,1.00
2018-09-15T17:00:03.028Z,1.00
2018-09-15T17:02:39.296Z,1.10
2018-09-15T17:05:15.579Z,1.10
2018-09-15T17:07:54.698Z,1.10
2018-09-15T17:13:04.398Z,1.17
2018-09-15T17:15:40.365Z,1.10
2018-09-15T17:18:16.366Z,1.10
2018-09-15T17:20:52.344Z,1.00
2018-09-15T17:23:28.700Z,1.12
2018-09-15T17:26:04.358Z,1.10
2018-09-15T17:28:40.381Z,1.05
2018-09-15T17:31:16.452Z,1.10
2018-09-15T17:33:52.554Z,1.13
2018-09-15T17:36:28.373Z,1.30
2018-09-15T17:39:05.017Z,1.20
2018-09-15T17:41:41.285Z,1.20
2018-09-15T17:44:17.396Z,1.30
2018-09-15T17:46:53.192Z,1.70
2018-09-15T17:49:29.292Z,1.92
2018-09-15T17:52:05.280Z,1.67
2018-09-15T17:54:41.480Z,1.40
2018-09-15T17:57:17.194Z,1.30
2018-09-15T17:59:53.284Z,1.10
2018-09-15T18:02:29.381Z,1.17
2018-09-15T18:05:06.122Z,1.50
2018-09-15T18:07:42.172Z,1.70
2018-09-15T18:10:18.166Z,1.25
2018-09-15T18:12:54.554Z,1.20
2018-09-15T18:15:30.792Z,1.20
2018-09-15T18:18:06.567Z,0.95
2018-09-15T18:20:42.565Z,1.20
2018-09-15T18:23:18.611Z,1.40
2018-09-15T18:25:54.845Z,1.27
2018-09-15T18:28:31.232Z,1.20
2018-09-15T18:31:07.194Z,1.20
2018-09-15T18:33:43.200Z,1.10
2018-09-15T18:36:19.477Z,0.88
2018-09-15T18:38:56.232Z,1.00
2018-09-15T18:41:32.045Z,1.00
2018-09-15T18:44:08.174Z,1.30
2018-09-15T18:46:44.394Z,1.10
2018-09-15T18:49:20.386Z,1.10
2018-09-15T18:51:56.219Z,1.20
2018-09-15T18:54:32.725Z,1.22
2018-09-15T18:57:08.585Z,1.40
2018-09-15T18:59:44.676Z,1.10
2018-09-15T19:02:20.754Z,1.40
2018-09-15T19:04:57.345Z,1.12
2018-09-15T19:07:33.209Z,1.30
2018-09-15T19:10:09.321Z,1.60
2018-09-15T19:12:45.221Z,1.30
2018-09-15T19:15:21.209Z,1.10
2018-09-15T19:17:57.271Z,1.12
2018-09-15T19:20:33.328Z,1.12
2018-09-15T19:23:09.210Z,1.00
2018-09-15T19:25:45.361Z,1.30
2018-09-15T19:28:21.615Z,1.10
2018-09-15T19:30:57.589Z,1.00
2018-09-15T19:33:33.396Z,1.20
2018-09-15T19:36:09.389Z,1.15
2018-09-15T19:38:45.892Z,1.30
2018-09-15T19:41:21.621Z,1.10
2018-09-15T19:43:57.214Z,1.20
2018-09-15T19:46:32.585Z,1.30
2018-09-15T19:49:07.816Z,1.30
2018-09-15T19:51:43.398Z,1.20
2018-09-15T19:54:19.169Z,1.15
2018-09-15T19:56:54.804Z,1.10
2018-09-15T19:59:30.391Z,1.07
2018-09-15T20:02:06.181Z,1.12
2018-09-15T20:04:41.845Z,1.22
2018-09-15T20:07:17.431Z,1.20
2018-09-15T20:09:53.003Z,0.90
2018-09-15T20:12:29.819Z,1.00
2018-09-15T20:15:05.431Z,1.00
2018-09-15T20:17:36.433Z,0.80
2018-09-15T20:20:07.233Z,1.00
2018-09-15T20:25:17.211Z,1.12
2018-09-15T20:27:53.127Z,1.30
2018-09-15T20:30:28.669Z,1.05
2018-09-15T20:33:04.417Z,1.00
2018-09-15T20:35:40.334Z,1.20
2018-09-15T20:38:15.634Z,0.93
2018-09-15T20:40:51.087Z,1.10
2018-09-15T20:43:26.609Z,0.72
2018-09-15T20:46:02.218Z,0.90
2018-09-15T20:48:37.877Z,0.98
2018-09-15T20:51:13.435Z,1.00
2018-09-15T20:53:49.241Z,1.10
2018-09-15T20:56:25.118Z,1.00
2018-09-15T20:59:00.620Z,1.00
2018-09-15T21:01:35.838Z,1.00
2018-09-15T21:04:11.611Z,1.10
2018-09-15T21:06:47.410Z,0.83
2018-09-15T21:09:22.798Z,1.12
2018-09-15T21:11:58.325Z,1.00
2018-09-15T21:14:33.847Z,0.98
2018-09-15T21:17:09.440Z,1.02
2018-09-15T21:19:46.330Z,1.10
2018-09-15T21:22:21.823Z,1.20
2018-09-15T21:24:57.564Z,1.00
2018-09-15T21:27:33.050Z,0.90
2018-09-15T21:30:09.241Z,1.05
2018-09-15T21:32:44.641Z,1.00
2018-09-15T21:35:20.077Z,1.00
2018-09-15T21:37:56.119Z,1.32
2018-09-15T21:40:32.448Z,0.90
2018-09-15T21:43:08.450Z,1.00
2018-09-15T21:45:44.425Z,1.20
2018-09-15T21:48:20.399Z,1.40
2018-09-15T21:50:56.452Z,1.30
2018-09-15T21:53:32.405Z,1.83
2018-09-15T21:56:08.933Z,1.95
2018-09-15T21:58:45.099Z,2.02
2018-09-15T22:01:21.398Z,2.00
2018-09-15T22:04:01.461Z,2.45
2018-09-15T22:06:37.259Z,2.00
2018-09-15T22:09:16.022Z,1.67
2018-09-15T22:11:51.893Z,2.33
2018-09-15T22:14:30.893Z,1.60
2018-09-15T22:17:07.242Z,1.80
2018-09-15T22:19:43.476Z,1.50
2018-09-15T22:22:19.870Z,1.98
2018-09-15T22:24:56.464Z,1.50
2018-09-15T22:27:32.456Z,2.15
2018-09-15T22:30:10.444Z,1.85
2018-09-15T22:32:46.466Z,1.35
2018-09-15T22:35:22.462Z,1.90
2018-09-15T22:37:58.467Z,1.22
2018-09-15T22:40:34.472Z,1.60
2018-09-15T22:43:12.645Z,1.50
2018-09-15T22:45:48.472Z,1.50
2018-09-15T22:48:24.502Z,1.40
2018-09-15T22:51:00.243Z,1.27
2018-09-15T22:53:36.642Z,1.42
2018-09-15T22:56:12.642Z,1.30
2018-09-15T22:58:48.661Z,1.40
2018-09-15T23:01:24.836Z,1.30
2018-09-15T23:04:09.059Z,1.30
2018-09-15T23:06:45.815Z,1.03
2018-09-15T23:09:22.468Z,1.30
2018-09-15T23:11:58.447Z,1.10
2018-09-15T23:14:34.410Z,1.30
2018-09-15T23:17:10.566Z,1.00
2018-09-15T23:19:47.037Z,0.90
2018-09-15T23:22:23.933Z,1.07
2018-09-15T23:25:00.221Z,0.82
2018-09-15T23:27:36.215Z,0.88
2018-09-15T23:30:12.038Z,0.90
2018-09-15T23:32:48.916Z,0.88
2018-09-15T23:35:25.224Z,0.70
2018-09-15T23:38:01.405Z,0.80
2018-09-15T23:40:37.377Z,1.10
2018-09-15T23:43:13.732Z,1.10
2018-09-15T23:45:49.729Z,0.90
2018-09-15T23:48:26.392Z,0.90
2018-09-15T23:51:02.777Z,0.75
2018-09-15T23:53:38.985Z,1.00
2018-09-15T23:56:15.015Z,1.00
2018-09-15T23:58:51.008Z,1.00
